sensor_id;sensor_type;location;lat;lon;timestamp;pressure;altitude;pressure_sealevel;temperature;humidity
79586;BME280;69054;50.866;4.636;2024-02-21T00:00:41;101829.78;;;8.02;100.00
79586;BME280;69054;50.866;4.636;2024-02-21T00:06:37;101819.56;;;8.04;100.00
79586;BME280;69054;50.866;4.636;2024-02-21T00:09:02;101808.84;;;8.02;100.00
79586;BME280;69054;50.866;4.636;2024-02-21T00:15:21;101809.31;;;7.97;100.00
79586;BME280;69054;50.866;4.636;2024-02-21T00:17:47;101810.88;;;8.00;100.00
79586;BME280;69054;50.866;4.636;2024-02-21T00:20:14;101808.16;;;8.00;100.00
79586;BME280;69054;50.866;4.636;2024-02-21T00:22:39;101803.56;;;8.00;100.00
79586;BME280;69054;50.866;4.636;2024-02-21T00:25:23;101805.28;;;8.02;100.00
79586;BME280;69054;50.866;4.636;2024-02-21T00:34:57;101791.72;;;8.10;100.00
79586;BME280;69054;50.866;4.636;2024-02-21T00:37:37;101796.19;;;8.11;100.00
79586;BME280;69054;50.866;4.636;2024-02-21T00:40:02;101778.28;;;8.08;100.00
79586;BME280;69054;50.866;4.636;2024-02-21T00:42:57;101782.72;;;8.09;100.00
79586;BME280;69054;50.866;4.636;2024-02-21T00:51:47;101747.81;;;8.05;100.00
79586;BME280;69054;50.866;4.636;2024-02-21T00:57:34;101761.41;;;8.05;100.00
79586;BME280;69054;50.866;4.636;2024-02-21T01:07:20;101749.84;;;8.03;100.00
79586;BME280;69054;50.866;4.636;2024-02-21T01:09:45;101734.34;;;8.03;100.00
79586;BME280;69054;50.866;4.636;2024-02-21T01:15:14;101739.47;;;8.06;100.00
79586;BME280;69054;50.866;4.636;2024-02-21T01:17:52;101734.88;;;8.07;100.00
79586;BME280;69054;50.866;4.636;2024-02-21T01:20:21;101729.75;;;8.04;100.00
79586;BME280;69054;50.866;4.636;2024-02-21T01:22:46;101736.91;;;8.05;100.00
79586;BME280;69054;50.866;4.636;2024-02-21T01:25:20;101724.47;;;8.02;100.00
79586;BME280;69054;50.866;4.636;2024-02-21T01:31:26;101728.69;;;7.96;100.00
79586;BME280;69054;50.866;4.636;2024-02-21T01:33:56;101720.69;;;7.95;100.00
79586;BME280;69054;50.866;4.636;2024-02-21T01:36:27;101718.81;;;7.95;100.00
79586;BME280;69054;50.866;4.636;2024-02-21T01:42:16;101699.50;;;7.89;100.00
79586;BME280;69054;50.866;4.636;2024-02-21T01:50:35;101682.94;;;7.82;100.00
79586;BME280;69054;50.866;4.636;2024-02-21T02:02:24;101661.19;;;7.82;100.00
79586;BME280;69054;50.866;4.636;2024-02-21T02:05:05;101662.91;;;7.83;100.00
79586;BME280;69054;50.866;4.636;2024-02-21T02:10:53;101656.50;;;7.92;100.00
79586;BME280;69054;50.866;4.636;2024-02-21T02:13:41;101661.97;;;7.92;100.00
79586;BME280;69054;50.866;4.636;2024-02-21T02:19:44;101656.50;;;7.92;100.00
79586;BME280;69054;50.866;4.636;2024-02-21T02:25:34;101656.84;;;7.89;100.00
79586;BME280;69054;50.866;4.636;2024-02-21T02:28:00;101667.72;;;7.89;100.00
79586;BME280;69054;50.866;4.636;2024-02-21T02:34:02;101663.53;;;7.95;100.00
79586;BME280;69054;50.866;4.636;2024-02-21T02:36:35;101659.09;;;7.94;100.00
79586;BME280;69054;50.866;4.636;2024-02-21T02:49:18;101639.50;;;7.90;100.00
79586;BME280;69054;50.866;4.636;2024-02-21T02:51:43;101644.22;;;7.88;100.00
79586;BME280;69054;50.866;4.636;2024-02-21T02:54:09;101645.94;;;7.89;100.00
79586;BME280;69054;50.866;4.636;2024-02-21T02:56:42;101639.50;;;7.90;100.00
79586;BME280;69054;50.866;4.636;2024-02-21T02:59:40;101641.66;;;7.87;100.00
79586;BME280;69054;50.866;4.636;2024-02-21T03:02:23;101632.66;;;7.86;100.00
79586;BME280;69054;50.866;4.636;2024-02-21T03:04:57;101618.00;;;7.87;100.00
79586;BME280;69054;50.866;4.636;2024-02-21T03:10:44;101602.16;;;7.82;100.00
79586;BME280;69054;50.866;4.636;2024-02-21T03:13:16;101597.97;;;7.88;100.00
79586;BME280;69054;50.866;4.636;2024-02-21T03:19:10;101577.69;;;7.82;100.00
79586;BME280;69054;50.866;4.636;2024-02-21T03:21:35;101582.28;;;7.82;100.00
79586;BME280;69054;50.866;4.636;2024-02-21T03:30:44;101576.47;;;7.77;100.00
79586;BME280;69054;50.866;4.636;2024-02-21T03:39:53;101560.28;;;7.75;100.00
79586;BME280;69054;50.866;4.636;2024-02-21T03:42:19;101559.97;;;7.78;100.00
79586;BME280;69054;50.866;4.636;2024-02-21T03:44:44;101554.91;;;7.84;100.00
79586;BME280;69054;50.866;4.636;2024-02-21T03:50:36;101547.75;;;7.82;100.00
79586;BME280;69054;50.866;4.636;2024-02-21T03:53:01;101540.06;;;7.78;100.00
79586;BME280;69054;50.866;4.636;2024-02-21T03:55:27;101535.34;;;7.80;100.00
79586;BME280;69054;50.866;4.636;2024-02-21T03:58:20;101546.91;;;7.82;100.00
79586;BME280;69054;50.866;4.636;2024-02-21T04:00:54;101552.66;;;7.79;100.00
79586;BME280;69054;50.866;4.636;2024-02-21T04:03:19;101545.50;;;7.78;100.00
79586;BME280;69054;50.866;4.636;2024-02-21T04:06:13;101550.09;;;7.77;100.00
79586;BME280;69054;50.866;4.636;2024-02-21T04:11:30;101541.78;;;7.79;100.00
79586;BME280;69054;50.866;4.636;2024-02-21T04:20:30;101545.78;;;7.67;100.00
79586;BME280;69054;50.866;4.636;2024-02-21T04:26:20;101548.19;;;7.70;100.00
79586;BME280;69054;50.866;4.636;2024-02-21T04:29:19;101545.44;;;7.70;100.00
79586;BME280;69054;50.866;4.636;2024-02-21T04:35:25;101537.97;;;7.72;100.00
79586;BME280;69054;50.866;4.636;2024-02-21T04:37:50;101537.97;;;7.72;100.00
79586;BME280;69054;50.866;4.636;2024-02-21T04:40:16;101536.13;;;7.72;100.00
79586;BME280;69054;50.866;4.636;2024-02-21T04:42:48;101537.66;;;7.75;100.00
79586;BME280;69054;50.866;4.636;2024-02-21T04:45:13;101523.38;;;7.73;100.00
79586;BME280;69054;50.866;4.636;2024-02-21T04:47:39;101522.38;;;7.74;100.00
79586;BME280;69054;50.866;4.636;2024-02-21T04:50:05;101518.63;;;7.75;100.00
79586;BME280;69054;50.866;4.636;2024-02-21T04:52:56;101524.38;;;7.72;100.00
79586;BME280;69054;50.866;4.636;2024-02-21T04:55:22;101522.38;;;7.74;100.00
79586;BME280;69054;50.866;4.636;2024-02-21T05:01:25;101498.41;;;7.77;100.00
79586;BME280;69054;50.866;4.636;2024-02-21T05:10:57;101495.16;;;7.74;100.00
79586;BME280;69054;50.866;4.636;2024-02-21T05:26:40;101448.53;;;7.69;100.00
79586;BME280;69054;50.866;4.636;2024-02-21T05:39:28;101429.16;;;7.72;100.00
79586;BME280;69054;50.866;4.636;2024-02-21T05:42:19;101418.13;;;7.73;100.00
79586;BME280;69054;50.866;4.636;2024-02-21T05:44:44;101425.94;;;7.76;100.00
79586;BME280;69054;50.866;4.636;2024-02-21T06:03:37;101413.06;;;7.78;100.00
79586;BME280;69054;50.866;4.636;2024-02-21T06:06:03;101395.03;;;7.77;100.00
79586;BME280;69054;50.866;4.636;2024-02-21T06:11:51;101391.13;;;7.80;100.00
79586;BME280;69054;50.866;4.636;2024-02-21T06:17:56;101375.13;;;7.77;100.00
79586;BME280;69054;50.866;4.636;2024-02-21T06:20:21;101369.38;;;7.80;100.00
79586;BME280;69054;50.866;4.636;2024-02-21T06:22:59;101373.59;;;7.82;100.00
79586;BME280;69054;50.866;4.636;2024-02-21T06:28:56;101369.72;;;7.85;100.00
79586;BME280;69054;50.866;4.636;2024-02-21T06:31:22;101376.00;;;7.86;100.00
79586;BME280;69054;50.866;4.636;2024-02-21T06:40:41;101375.97;;;7.77;100.00
79586;BME280;69054;50.866;4.636;2024-02-21T06:53:20;101384.28;;;7.76;100.00
79586;BME280;69054;50.866;4.636;2024-02-21T06:55:54;101374.41;;;7.67;100.00
79586;BME280;69054;50.866;4.636;2024-02-21T06:58:19;101376.53;;;7.55;100.00
79586;BME280;69054;50.866;4.636;2024-02-21T07:00:47;101362.59;;;7.50;100.00
79586;BME280;69054;50.866;4.636;2024-02-21T07:03:31;101372.00;;;7.37;100.00
79586;BME280;69054;50.866;4.636;2024-02-21T07:05:56;101367.75;;;7.35;100.00
79586;BME280;69054;50.866;4.636;2024-02-21T07:12:11;101358.69;;;7.26;100.00
79586;BME280;69054;50.866;4.636;2024-02-21T07:18:17;101359.34;;;7.20;100.00
79586;BME280;69054;50.866;4.636;2024-02-21T07:20:43;101347.47;;;7.21;100.00
79586;BME280;69054;50.866;4.636;2024-02-21T07:23:08;101352.91;;;7.21;100.00
79586;BME280;69054;50.866;4.636;2024-02-21T07:25:34;101346.91;;;7.17;100.00
79586;BME280;69054;50.866;4.636;2024-02-21T07:27:59;101352.34;;;7.17;100.00
79586;BME280;69054;50.866;4.636;2024-02-21T07:30:25;101352.19;;;7.19;100.00
79586;BME280;69054;50.866;4.636;2024-02-21T07:32:51;101348.63;;;7.18;100.00
79586;BME280;69054;50.866;4.636;2024-02-21T07:35:20;101347.47;;;7.21;100.00
79586;BME280;69054;50.866;4.636;2024-02-21T07:37:45;101348.63;;;7.18;100.00
79586;BME280;69054;50.866;4.636;2024-02-21T07:40:15;101342.34;;;7.18;100.00
79586;BME280;69054;50.866;4.636;2024-02-21T07:42:41;101335.19;;;7.17;100.00
79586;BME280;69054;50.866;4.636;2024-02-21T07:45:08;101321.13;;;7.21;100.00
79586;BME280;69054;50.866;4.636;2024-02-21T07:47:35;101309.41;;;7.21;100.00
79586;BME280;69054;50.866;4.636;2024-02-21T07:50:03;101302.78;;;7.23;100.00
79586;BME280;69054;50.866;4.636;2024-02-21T07:56:07;101294.69;;;7.32;100.00
79586;BME280;69054;50.866;4.636;2024-02-21T07:58:33;101294.19;;;7.36;100.00
79586;BME280;69054;50.866;4.636;2024-02-21T08:00:58;101285.16;;;7.36;100.00
79586;BME280;69054;50.866;4.636;2024-02-21T08:03:24;101278.56;;;7.38;100.00
79586;BME280;69054;50.866;4.636;2024-02-21T08:05:50;101279.09;;;7.42;100.00
79586;BME280;69054;50.866;4.636;2024-02-21T08:08:16;101270.63;;;7.45;100.00
79586;BME280;69054;50.866;4.636;2024-02-21T08:10:45;101272.13;;;7.47;100.00
79586;BME280;69054;50.866;4.636;2024-02-21T08:13:11;101249.38;;;7.57;100.00
79586;BME280;69054;50.866;4.636;2024-02-21T08:15:36;101253.66;;;7.59;100.00
79586;BME280;69054;50.866;4.636;2024-02-21T08:18:04;101236.84;;;7.64;100.00
79586;BME280;69054;50.866;4.636;2024-02-21T08:20:33;101233.28;;;7.72;100.00
79586;BME280;69054;50.866;4.636;2024-02-21T08:22:58;101228.56;;;7.74;100.00
79586;BME280;69054;50.866;4.636;2024-02-21T08:25:24;101245.38;;;7.77;100.00
79586;BME280;69054;50.866;4.636;2024-02-21T08:27:49;101233.31;;;7.80;100.00
79586;BME280;69054;50.866;4.636;2024-02-21T08:30:16;101234.50;;;7.77;100.00
79586;BME280;69054;50.866;4.636;2024-02-21T08:32:42;101226.50;;;7.84;100.00
79586;BME280;69054;50.866;4.636;2024-02-21T08:35:08;101225.50;;;7.85;100.00
79586;BME280;69054;50.866;4.636;2024-02-21T08:37:33;101227.03;;;7.88;100.00
79586;BME280;69054;50.866;4.636;2024-02-21T08:39:59;101229.09;;;7.94;100.00
79586;BME280;69054;50.866;4.636;2024-02-21T08:42:30;101220.44;;;7.98;100.00
79586;BME280;69054;50.866;4.636;2024-02-21T08:45:02;101214.66;;;8.02;100.00
79586;BME280;69054;50.866;4.636;2024-02-21T08:47:27;101216.88;;;7.98;100.00
79586;BME280;69054;50.866;4.636;2024-02-21T08:49:53;101200.03;;;8.03;100.00
79586;BME280;69054;50.866;4.636;2024-02-21T08:52:18;101190.47;;;8.07;100.00
79586;BME280;69054;50.866;4.636;2024-02-21T08:54:44;101194.25;;;8.06;100.00
79586;BME280;69054;50.866;4.636;2024-02-21T08:57:09;101180.97;;;8.11;100.00
79586;BME280;69054;50.866;4.636;2024-02-21T08:59:35;101187.78;;;8.15;100.00
79586;BME280;69054;50.866;4.636;2024-02-21T09:02:17;101180.28;;;8.17;100.00
79586;BME280;69054;50.866;4.636;2024-02-21T09:04:43;101176.22;;;8.21;100.00
79586;BME280;69054;50.866;4.636;2024-02-21T09:07:12;101168.38;;;8.26;100.00
79586;BME280;69054;50.866;4.636;2024-02-21T09:09:37;101172.09;;;8.33;100.00
79586;BME280;69054;50.866;4.636;2024-02-21T09:12:07;101157.81;;;8.40;100.00
79586;BME280;69054;50.866;4.636;2024-02-21T09:14:33;101144.22;;;8.48;100.00
79586;BME280;69054;50.866;4.636;2024-02-21T09:16:58;101145.25;;;8.47;100.00
79586;BME280;69054;50.866;4.636;2024-02-21T09:19:24;101140.09;;;8.52;100.00
79586;BME280;69054;50.866;4.636;2024-02-21T09:21:49;101136.38;;;8.53;100.00
79586;BME280;69054;50.866;4.636;2024-02-21T09:24:15;101135.34;;;8.54;100.00
79586;BME280;69054;50.866;4.636;2024-02-21T09:26:40;101134.47;;;8.62;100.00
79586;BME280;69054;50.866;4.636;2024-02-21T09:29:06;101130.19;;;8.67;100.00
79586;BME280;69054;50.866;4.636;2024-02-21T09:31:32;101132.59;;;8.62;100.00
79586;BME280;69054;50.866;4.636;2024-02-21T09:33:57;101126.44;;;8.68;100.00
79586;BME280;69054;50.866;4.636;2024-02-21T09:36:23;101119.28;;;8.67;100.00
79586;BME280;69054;50.866;4.636;2024-02-21T09:38:48;101104.00;;;8.66;100.00
79586;BME280;69054;50.866;4.636;2024-02-21T09:41:18;101095.75;;;8.83;100.00
79586;BME280;69054;50.866;4.636;2024-02-21T09:43:54;101091.59;;;8.95;100.00
79586;BME280;69054;50.866;4.636;2024-02-21T09:46:24;101075.97;;;8.89;100.00
79586;BME280;69054;50.866;4.636;2024-02-21T09:49:10;101072.00;;;9.00;100.00
79586;BME280;69054;50.866;4.636;2024-02-21T09:51:40;101057.28;;;9.09;100.00
79586;BME280;69054;50.866;4.636;2024-02-21T09:54:07;101048.63;;;9.05;100.00
79586;BME280;69054;50.866;4.636;2024-02-21T09:56:33;101046.84;;;9.13;100.00
79586;BME280;69054;50.866;4.636;2024-02-21T09:58:59;101039.38;;;9.15;100.00
79586;BME280;69054;50.866;4.636;2024-02-21T10:01:26;101048.81;;;9.27;100.00
79586;BME280;69054;50.866;4.636;2024-02-21T10:03:51;101042.72;;;9.25;100.00
79586;BME280;69054;50.866;4.636;2024-02-21T10:06:17;101037.13;;;9.18;100.00
79586;BME280;69054;50.866;4.636;2024-02-21T10:08:42;101039.56;;;9.36;100.00
79586;BME280;69054;50.866;4.636;2024-02-21T10:11:07;101033.31;;;9.28;100.00
79586;BME280;69054;50.866;4.636;2024-02-21T10:13:35;101021.84;;;9.32;100.00
79586;BME280;69054;50.866;4.636;2024-02-21T10:16:05;101011.25;;;9.37;100.00
79586;BME280;69054;50.866;4.636;2024-02-21T10:18:31;101011.44;;;9.36;100.00
79586;BME280;69054;50.866;4.636;2024-02-21T10:21:04;101006.19;;;9.34;100.00
79586;BME280;69054;50.866;4.636;2024-02-21T10:23:51;101008.47;;;9.46;100.00
79586;BME280;69054;50.866;4.636;2024-02-21T10:26:18;100998.94;;;9.41;100.00
79586;BME280;69054;50.866;4.636;2024-02-21T10:28:45;100989.00;;;9.49;100.00
79586;BME280;69054;50.866;4.636;2024-02-21T10:31:30;100991.28;;;9.60;100.00
79586;BME280;69054;50.866;4.636;2024-02-21T10:34:16;100989.31;;;9.69;100.00
79586;BME280;69054;50.866;4.636;2024-02-21T10:36:42;100968.72;;;9.66;100.00
79586;BME280;69054;50.866;4.636;2024-02-21T10:42:44;100953.28;;;9.73;100.00
79586;BME280;69054;50.866;4.636;2024-02-21T10:45:16;100968.47;;;9.91;100.00
79586;BME280;69054;50.866;4.636;2024-02-21T10:47:44;100966.31;;;9.86;100.00
79586;BME280;69054;50.866;4.636;2024-02-21T10:50:24;100976.75;;;9.83;100.00
79586;BME280;69054;50.866;4.636;2024-02-21T10:53:17;100968.56;;;9.83;100.00
79586;BME280;69054;50.866;4.636;2024-02-21T10:59:26;100960.56;;;9.96;100.00
79586;BME280;69054;50.866;4.636;2024-02-21T11:05:04;100931.09;;;10.06;100.00
79586;BME280;69054;50.866;4.636;2024-02-21T11:07:31;100919.41;;;9.98;100.00
79586;BME280;69054;50.866;4.636;2024-02-21T11:09:58;100918.19;;;10.15;100.00
79586;BME280;69054;50.866;4.636;2024-02-21T11:15:43;100908.41;;;10.36;100.00
79586;BME280;69054;50.866;4.636;2024-02-21T11:18:08;100903.50;;;10.31;100.00
79586;BME280;69054;50.866;4.636;2024-02-21T11:20:37;100892.28;;;10.41;100.00
79586;BME280;69054;50.866;4.636;2024-02-21T11:23:04;100895.22;;;10.39;100.00
79586;BME280;69054;50.866;4.636;2024-02-21T11:25:29;100866.19;;;10.23;100.00
79586;BME280;69054;50.866;4.636;2024-02-21T11:28:00;100871.22;;;10.20;100.00
79586;BME280;69054;50.866;4.636;2024-02-21T11:30:35;100860.53;;;10.25;100.00
79586;BME280;69054;50.866;4.636;2024-02-21T11:33:02;100854.53;;;10.29;100.00
79586;BME280;69054;50.866;4.636;2024-02-21T11:35:35;100850.00;;;10.22;100.00
79586;BME280;69054;50.866;4.636;2024-02-21T11:38:13;100850.19;;;10.20;100.00
79586;BME280;69054;50.866;4.636;2024-02-21T11:40:44;100855.47;;;10.22;100.00
79586;BME280;69054;50.866;4.636;2024-02-21T11:43:10;100830.19;;;10.13;100.00
79586;BME280;69054;50.866;4.636;2024-02-21T11:45:36;100830.63;;;10.17;100.00
79586;BME280;69054;50.866;4.636;2024-02-21T11:48:01;100829.22;;;10.21;100.00
79586;BME280;69054;50.866;4.636;2024-02-21T11:50:29;100804.44;;;10.22;100.00
79586;BME280;69054;50.866;4.636;2024-02-21T11:52:56;100822.38;;;10.10;100.00
79586;BME280;69054;50.866;4.636;2024-02-21T11:55:24;100809.56;;;10.10;100.00
79586;BME280;69054;50.866;4.636;2024-02-21T11:57:50;100817.69;;;10.04;100.00
79586;BME280;69054;50.866;4.636;2024-02-21T12:00:16;100802.78;;;10.06;100.00
79586;BME280;69054;50.866;4.636;2024-02-21T12:02:44;100790.50;;;10.17;100.00
79586;BME280;69054;50.866;4.636;2024-02-21T12:05:25;100805.13;;;10.09;100.00
79586;BME280;69054;50.866;4.636;2024-02-21T12:10:55;100772.59;;;9.93;100.00
79586;BME280;69054;50.866;4.636;2024-02-21T12:13:23;100776.00;;;9.95;100.00
79586;BME280;69054;50.866;4.636;2024-02-21T12:15:56;100769.84;;;9.93;100.00
79586;BME280;69054;50.866;4.636;2024-02-21T12:18:22;100766.66;;;10.04;100.00
79586;BME280;69054;50.866;4.636;2024-02-21T12:20:48;100757.44;;;10.05;100.00
79586;BME280;69054;50.866;4.636;2024-02-21T12:23:50;100762.75;;;10.13;100.00
79586;BME280;69054;50.866;4.636;2024-02-21T12:26:25;100760.34;;;10.04;100.00
79586;BME280;69054;50.866;4.636;2024-02-21T12:28:57;100745.59;;;9.98;100.00
79586;BME280;69054;50.866;4.636;2024-02-21T12:31:23;100747.72;;;10.03;100.00
79586;BME280;69054;50.866;4.636;2024-02-21T12:33:56;100741.75;;;10.14;100.00
79586;BME280;69054;50.866;4.636;2024-02-21T12:36:21;100742.41;;;10.16;100.00
79586;BME280;69054;50.866;4.636;2024-02-21T12:38:47;100720.75;;;10.15;100.00
79586;BME280;69054;50.866;4.636;2024-02-21T12:41:14;100720.38;;;10.18;100.00
79586;BME280;69054;50.866;4.636;2024-02-21T12:50:24;100702.94;;;10.19;100.00
79586;BME280;69054;50.866;4.636;2024-02-21T12:52:49;100689.94;;;10.21;100.00
79586;BME280;69054;50.866;4.636;2024-02-21T12:55:23;100691.75;;;10.13;100.00
79586;BME280;69054;50.866;4.636;2024-02-21T12:57:49;100663.44;;;10.15;100.00
79586;BME280;69054;50.866;4.636;2024-02-21T13:00:15;100682.16;;;10.18;100.00
79586;BME280;69054;50.866;4.636;2024-02-21T13:02:40;100671.47;;;10.23;100.00
79586;BME280;69054;50.866;4.636;2024-02-21T13:05:06;100650.16;;;10.11;100.00
79586;BME280;69054;50.866;4.636;2024-02-21T13:07:33;100645.97;;;10.16;100.00
79586;BME280;69054;50.866;4.636;2024-02-21T13:09:59;100644.13;;;10.16;100.00
79586;BME280;69054;50.866;4.636;2024-02-21T13:12:25;100637.19;;;10.20;100.00
79586;BME280;69054;50.866;4.636;2024-02-21T13:14:54;100623.75;;;10.19;100.00
79586;BME280;69054;50.866;4.636;2024-02-21T13:17:20;100624.72;;;10.33;100.00
79586;BME280;69054;50.866;4.636;2024-02-21T13:19:47;100605.59;;;10.33;100.00
79586;BME280;69054;50.866;4.636;2024-02-21T13:22:13;100601.00;;;10.33;100.00
79586;BME280;69054;50.866;4.636;2024-02-21T13:24:38;100589.81;;;10.28;100.00
79586;BME280;69054;50.866;4.636;2024-02-21T13:27:04;100587.22;;;10.20;100.00
79586;BME280;69054;50.866;4.636;2024-02-21T13:29:30;100588.91;;;10.21;100.00
79586;BME280;69054;50.866;4.636;2024-02-21T13:31:55;100584.63;;;10.11;100.00
79586;BME280;69054;50.866;4.636;2024-02-21T13:34:21;100583.19;;;10.16;100.00
79586;BME280;69054;50.866;4.636;2024-02-21T13:36:46;100574.50;;;10.05;100.00
79586;BME280;69054;50.866;4.636;2024-02-21T13:39:12;100577.44;;;10.04;100.00
79586;BME280;69054;50.866;4.636;2024-02-21T13:41:44;100569.63;;;10.01;100.00
79586;BME280;69054;50.866;4.636;2024-02-21T13:44:09;100562.69;;;9.98;100.00
79586;BME280;69054;50.866;4.636;2024-02-21T13:46:35;100553.72;;;10.04;100.00
79586;BME280;69054;50.866;4.636;2024-02-21T13:49:05;100536.69;;;10.02;100.00
79586;BME280;69054;50.866;4.636;2024-02-21T13:51:32;100529.22;;;9.89;100.00
79586;BME280;69054;50.866;4.636;2024-02-21T13:53:57;100515.88;;;9.73;100.00
79586;BME280;69054;50.866;4.636;2024-02-21T13:56:24;100519.06;;;9.55;100.00
79586;BME280;69054;50.866;4.636;2024-02-21T13:58:53;100493.31;;;9.36;100.00
79586;BME280;69054;50.866;4.636;2024-02-21T14:01:18;100505.19;;;9.28;100.00
79586;BME280;69054;50.866;4.636;2024-02-21T14:03:44;100501.97;;;9.24;100.00
79586;BME280;69054;50.866;4.636;2024-02-21T14:06:09;100488.69;;;9.15;100.00
79586;BME280;69054;50.866;4.636;2024-02-21T14:08:35;100487.75;;;9.08;100.00
79586;BME280;69054;50.866;4.636;2024-02-21T14:11:02;100485.81;;;9.01;100.00
79586;BME280;69054;50.866;4.636;2024-02-21T14:13:27;100468.34;;;8.96;100.00
79586;BME280;69054;50.866;4.636;2024-02-21T14:15:53;100466.84;;;8.93;100.00
79586;BME280;69054;50.866;4.636;2024-02-21T14:18:19;100460.09;;;8.89;100.00
79586;BME280;69054;50.866;4.636;2024-02-21T14:20:44;100448.34;;;8.88;100.00
79586;BME280;69054;50.866;4.636;2024-02-21T14:23:12;100438.22;;;8.82;100.00
79586;BME280;69054;50.866;4.636;2024-02-21T14:25:38;100430.63;;;8.78;100.00
79586;BME280;69054;50.866;4.636;2024-02-21T14:28:05;100421.34;;;8.72;100.00
79586;BME280;69054;50.866;4.636;2024-02-21T14:30:30;100413.53;;;8.69;100.00
79586;BME280;69054;50.866;4.636;2024-02-21T14:32:56;100400.31;;;8.66;100.00
79586;BME280;69054;50.866;4.636;2024-02-21T14:35:22;100383.50;;;8.62;100.00
79586;BME280;69054;50.866;4.636;2024-02-21T14:37:47;100385.59;;;8.60;100.00
79586;BME280;69054;50.866;4.636;2024-02-21T14:40:16;100382.97;;;8.52;100.00
79586;BME280;69054;50.866;4.636;2024-02-21T14:42:41;100378.97;;;8.48;100.00
79586;BME280;69054;50.866;4.636;2024-02-21T14:45:07;100357.25;;;8.40;100.00
79586;BME280;69054;50.866;4.636;2024-02-21T14:47:33;100344.66;;;8.39;100.00
79586;BME280;69054;50.866;4.636;2024-02-21T14:49:59;100337.94;;;8.34;100.00
79586;BME280;69054;50.866;4.636;2024-02-21T14:52:25;100332.50;;;8.34;100.00
79586;BME280;69054;50.866;4.636;2024-02-21T14:54:52;100328.06;;;8.33;100.00
79586;BME280;69054;50.866;4.636;2024-02-21T14:57:18;100317.38;;;8.32;100.00
79586;BME280;69054;50.866;4.636;2024-02-21T14:59:45;100292.25;;;8.30;100.00
79586;BME280;69054;50.866;4.636;2024-02-21T15:02:11;100300.59;;;8.28;100.00
79586;BME280;69054;50.866;4.636;2024-02-21T15:04:36;100283.97;;;8.23;100.00
79586;BME280;69054;50.866;4.636;2024-02-21T15:07:02;100289.81;;;8.20;100.00
79586;BME280;69054;50.866;4.636;2024-02-21T15:09:27;100275.38;;;8.20;100.00
79586;BME280;69054;50.866;4.636;2024-02-21T15:11:53;100260.25;;;8.17;100.00
79586;BME280;69054;50.866;4.636;2024-02-21T15:14:19;100258.22;;;8.19;100.00
79586;BME280;69054;50.866;4.636;2024-02-21T15:16:49;100242.44;;;8.14;100.00
79586;BME280;69054;50.866;4.636;2024-02-21T15:19:14;100252.78;;;8.19;100.00
79586;BME280;69054;50.866;4.636;2024-02-21T15:21:40;100258.84;;;8.21;100.00
79586;BME280;69054;50.866;4.636;2024-02-21T15:24:06;100240.56;;;8.15;100.00
79586;BME280;69054;50.866;4.636;2024-02-21T15:26:31;100228.81;;;8.14;100.00
79586;BME280;69054;50.866;4.636;2024-02-21T15:28:57;100231.75;;;8.13;100.00
79586;BME280;69054;50.866;4.636;2024-02-21T15:31:23;100219.19;;;8.12;100.00
79586;BME280;69054;50.866;4.636;2024-02-21T15:33:52;100216.28;;;8.13;100.00
79586;BME280;69054;50.866;4.636;2024-02-21T15:36:18;100203.31;;;8.15;100.00
79586;BME280;69054;50.866;4.636;2024-02-21T15:38:45;100183.41;;;8.15;100.00
79586;BME280;69054;50.866;4.636;2024-02-21T15:41:16;100175.66;;;8.12;100.00
79586;BME280;69054;50.866;4.636;2024-02-21T15:43:42;100162.44;;;8.09;100.00
79586;BME280;69054;50.866;4.636;2024-02-21T15:46:13;100170.41;;;8.10;100.00
79586;BME280;69054;50.866;4.636;2024-02-21T15:48:38;100159.72;;;8.09;100.00
79586;BME280;69054;50.866;4.636;2024-02-21T15:51:05;100153.59;;;8.07;100.00
79586;BME280;69054;50.866;4.636;2024-02-21T15:53:31;100141.88;;;8.06;100.00
79586;BME280;69054;50.866;4.636;2024-02-21T15:55:57;100145.44;;;8.07;100.00
79586;BME280;69054;50.866;4.636;2024-02-21T15:58:22;100138.44;;;7.97;100.00
79586;BME280;69054;50.866;4.636;2024-02-21T16:00:49;100135.72;;;7.97;100.00
79586;BME280;69054;50.866;4.636;2024-02-21T16:03:15;100135.72;;;7.97;100.00
79586;BME280;69054;50.866;4.636;2024-02-21T16:05:43;100134.31;;;8.02;100.00
79586;BME280;69054;50.866;4.636;2024-02-21T16:08:09;100122.13;;;7.97;100.00
79586;BME280;69054;50.866;4.636;2024-02-21T16:10:34;100127.38;;;7.99;100.00
79586;BME280;69054;50.866;4.636;2024-02-21T16:13:00;100128.22;;;7.99;100.00
79586;BME280;69054;50.866;4.636;2024-02-21T16:15:26;100129.00;;;7.93;100.00
79586;BME280;69054;50.866;4.636;2024-02-21T16:17:51;100122.72;;;7.93;100.00
79586;BME280;69054;50.866;4.636;2024-02-21T16:20:17;100115.97;;;7.89;100.00
79586;BME280;69054;50.866;4.636;2024-02-21T16:22:43;100119.53;;;7.89;100.00
79586;BME280;69054;50.866;4.636;2024-02-21T16:25:10;100110.91;;;7.86;100.00
79586;BME280;69054;50.866;4.636;2024-02-21T16:27:35;100106.78;;;7.90;100.00
79586;BME280;69054;50.866;4.636;2024-02-21T16:30:02;100102.56;;;7.87;100.00
79586;BME280;69054;50.866;4.636;2024-02-21T16:32:28;100102.13;;;7.84;100.00
79586;BME280;69054;50.866;4.636;2024-02-21T16:34:54;100112.81;;;7.85;100.00
79586;BME280;69054;50.866;4.636;2024-02-21T16:37:19;100096.69;;;7.84;100.00
79586;BME280;69054;50.866;4.636;2024-02-21T16:39:46;100098.19;;;7.86;100.00
79586;BME280;69054;50.866;4.636;2024-02-21T16:42:12;100090.00;;;7.86;100.00
79586;BME280;69054;50.866;4.636;2024-02-21T16:44:37;100081.00;;;7.86;100.00
79586;BME280;69054;50.866;4.636;2024-02-21T16:47:04;100096.69;;;7.84;100.00